createdAt,value
2023-04-15T00:00:58.392Z,100025.75
2023-04-15T00:03:27.002Z,100025.53
2023-04-15T00:05:55.159Z,100025.41
2023-04-15T00:08:23.710Z,100018.72
2023-04-15T00:10:51.597Z,100020.06
2023-04-15T00:13:20.838Z,100012.91
2023-04-15T00:15:48.975Z,100012.91
2023-04-15T00:18:16.936Z,100015.41
2023-04-15T00:20:44.967Z,100006.13
2023-04-15T00:23:12.872Z,100018.16
2023-04-15T00:25:41.316Z,100015.19
2023-04-15T00:28:09.901Z,100009.69
2023-04-15T00:30:39.377Z,100013.38
2023-04-15T00:33:07.900Z,100011.59
2023-04-15T00:35:36.637Z,100009.44
2023-04-15T00:38:04.707Z,100004.13
2023-04-15T00:40:33.294Z,100009.81
2023-04-15T00:43:01.557Z,100010.91
2023-04-15T00:45:30.189Z,100008.63
2023-04-15T00:47:59.824Z,100014.59
2023-04-15T00:50:27.760Z,100010.69
2023-04-15T00:52:56.014Z,100007.31
2023-04-15T00:55:24.072Z,99995.03
2023-04-15T00:57:53.006Z,100001.50
2023-04-15T01:00:22.679Z,99994.09
2023-04-15T01:02:51.578Z,99998.75
2023-04-15T01:05:21.240Z,100002.81
2023-04-15T01:07:49.602Z,99991.34
2023-04-15T01:10:17.530Z,99992.09
2023-04-15T01:12:45.965Z,99990.06
2023-04-15T01:15:13.890Z,99995.03
2023-04-15T01:17:41.975Z,99984.47
2023-04-15T01:20:12.134Z,99987.66
2023-04-15T01:22:42.177Z,99982.66
2023-04-15T01:25:14.011Z,99983.75
2023-04-15T01:27:43.471Z,99988.84
2023-04-15T01:30:12.178Z,99977.44
2023-04-15T01:32:40.331Z,99976.09
2023-04-15T01:35:27.028Z,99976.09
2023-04-15T01:37:55.647Z,99981.00
2023-04-15T01:40:23.501Z,99974.94
2023-04-15T01:42:54.585Z,99971.38
2023-04-15T01:45:23.694Z,99976.47
2023-04-15T01:47:52.985Z,99973.38
2023-04-15T01:50:22.418Z,99971.38
2023-04-15T01:52:52.046Z,99974.69
2023-04-15T01:55:23.448Z,99967.06
2023-04-15T01:57:53.933Z,99970.28
2023-04-15T02:00:24.036Z,99974.22
2023-04-15T02:02:54.683Z,99968.16
2023-04-15T02:05:24.231Z,99971.59
2023-04-15T02:07:53.691Z,99975.41
2023-04-15T02:10:23.119Z,99967.91
2023-04-15T02:12:52.242Z,99972.66
2023-04-15T02:15:22.836Z,99961.22
2023-04-15T02:17:55.241Z,99969.69
2023-04-15T02:20:24.867Z,99964.09
2023-04-15T02:22:54.166Z,99968.38
2023-04-15T02:25:23.345Z,99962.44
2023-04-15T02:27:53.220Z,99965.66
2023-04-15T02:30:25.487Z,99966.47
2023-04-15T02:32:55.942Z,99965.41
2023-04-15T02:35:27.651Z,99964.56
2023-04-15T02:37:57.321Z,99967.31
2023-04-15T02:40:27.021Z,99962.41
2023-04-15T02:42:56.452Z,99960.63
2023-04-15T02:45:28.059Z,99965.03
2023-04-15T02:47:57.251Z,99971.13
2023-04-15T02:50:27.541Z,99973.75
2023-04-15T02:52:56.660Z,99971.94
2023-04-15T02:55:25.833Z,99976.25
2023-04-15T02:57:55.061Z,99972.44
2023-04-15T03:00:25.456Z,99974.94
2023-04-15T03:03:00.039Z,99977.69
2023-04-15T03:05:29.621Z,99972.53
2023-04-15T03:07:59.207Z,99981.97
2023-04-15T03:10:28.452Z,99970.53
2023-04-15T03:12:57.714Z,99974.94
2023-04-15T03:15:27.073Z,99971.38
2023-04-15T03:17:58.588Z,99980.66
2023-04-15T03:20:28.025Z,99975.06
2023-04-15T03:22:57.278Z,99983.78
2023-04-15T03:25:27.716Z,99982.78
2023-04-15T03:27:56.975Z,99977.19
2023-04-15T03:30:26.176Z,99981.16
2023-04-15T03:32:55.460Z,99977.81
2023-04-15T03:35:26.192Z,99981.03
2023-04-15T03:37:55.610Z,99979.97
2023-04-15T03:40:24.800Z,99975.91
2023-04-15T03:42:53.988Z,99970.06
2023-04-15T03:45:23.142Z,99971.03
2023-04-15T03:47:52.465Z,99973.88
2023-04-15T03:50:21.805Z,99969.25
2023-04-15T03:52:52.329Z,99970.81
2023-04-15T03:55:21.684Z,99979.13
2023-04-15T03:57:50.963Z,99985.81
2023-04-15T04:00:20.658Z,99977.69
2023-04-15T04:02:49.933Z,99974.25
2023-04-15T04:05:19.266Z,99988.75
2023-04-15T04:07:48.419Z,99978.63
2023-04-15T04:10:18.947Z,99985.19
2023-04-15T04:12:48.074Z,99985.09
2023-04-15T04:15:17.263Z,99977.91
2023-04-15T04:17:46.692Z,99979.44
2023-04-15T04:20:16.053Z,99980.91
2023-04-15T04:22:45.646Z,99982.78
2023-04-15T04:25:14.863Z,99981.50
2023-04-15T04:27:45.688Z,99991.84
2023-04-15T04:30:14.883Z,99988.03
2023-04-15T04:32:44.121Z,99983.75
2023-04-15T04:35:13.319Z,99981.63
2023-04-15T04:37:42.643Z,99985.91
2023-04-15T04:40:13.207Z,99982.88
2023-04-15T04:42:42.444Z,99981.47
2023-04-15T04:45:13.330Z,99983.97
2023-04-15T04:47:42.750Z,99994.09
2023-04-15T04:50:12.294Z,99990.75
2023-04-15T04:52:41.494Z,100000.78
2023-04-15T04:55:10.740Z,99994.09
2023-04-15T04:57:40.518Z,100001.03
2023-04-15T05:00:10.645Z,100000.53
2023-04-15T05:02:42.377Z,100001.38
2023-04-15T05:05:13.155Z,100012.81
2023-04-15T05:07:42.294Z,100016.41
2023-04-15T05:10:11.836Z,100007.56
2023-04-15T05:12:40.990Z,100015.31
2023-04-15T05:15:11.038Z,100012.47
2023-04-15T05:17:41.602Z,100006.72
2023-04-15T05:20:11.864Z,100013.63
2023-04-15T05:22:41.156Z,100019.84
2023-04-15T05:25:10.696Z,100018.63
2023-04-15T05:27:39.816Z,100012.91
2023-04-15T05:30:12.123Z,100011.09
2023-04-15T05:32:44.037Z,100014.31
2023-04-15T05:35:13.242Z,100020.41
2023-04-15T05:37:42.373Z,100015.59
2023-04-15T05:40:11.871Z,100025.16
2023-04-15T05:42:41.373Z,100024.19
2023-04-15T05:45:11.540Z,100022.16
2023-04-15T05:47:40.805Z,100014.59
2023-04-15T05:50:12.212Z,100017.69
2023-04-15T05:52:41.441Z,100014.72
2023-04-15T05:55:11.093Z,100014.13
2023-04-15T05:57:40.255Z,100012.19
2023-04-15T06:00:10.426Z,100020.63
2023-04-15T06:02:39.923Z,100022.88
2023-04-15T06:05:11.864Z,100016.03
2023-04-15T06:07:41.073Z,100019.69
2023-04-15T06:10:11.124Z,100018.28
2023-04-15T06:12:40.423Z,100013.75
2023-04-15T06:15:11.263Z,100012.91
2023-04-15T06:17:40.482Z,100013.63
2023-04-15T06:20:12.553Z,100017.53
2023-04-15T06:22:41.828Z,100012.94
2023-04-15T06:25:11.245Z,100023.94
2023-04-15T06:27:40.802Z,100015.59
2023-04-15T06:30:10.876Z,100020.00
2023-04-15T06:32:40.110Z,100024.72
2023-04-15T06:35:11.586Z,100021.13
2023-04-15T06:37:40.813Z,100024.88
2023-04-15T06:40:11.150Z,100027.06
2023-04-15T06:42:40.630Z,100035.28
2023-04-15T06:45:10.985Z,100038.38
2023-04-15T06:47:40.861Z,100039.22
2023-04-15T06:50:12.486Z,100042.56
2023-04-15T06:52:41.646Z,100045.75
2023-04-15T06:55:11.431Z,100047.09
2023-04-15T06:57:40.698Z,100052.78
2023-04-15T07:00:12.151Z,100051.22
2023-04-15T07:02:41.559Z,100060.09
2023-04-15T07:05:12.733Z,100059.28
2023-04-15T07:07:42.210Z,100059.28
2023-04-15T07:10:12.143Z,100060.50
2023-04-15T07:12:41.623Z,100062.97
2023-04-15T07:15:12.108Z,100076.06
2023-04-15T07:17:43.277Z,100074.41
2023-04-15T07:20:14.516Z,100082.88
2023-04-15T07:22:44.110Z,100074.88
2023-04-15T07:25:13.394Z,100083.72
2023-04-15T07:27:42.769Z,100078.31
2023-04-15T07:30:13.243Z,100085.31
2023-04-15T07:32:43.489Z,100087.88
2023-04-15T07:35:14.693Z,100082.19
2023-04-15T07:37:44.480Z,100091.84
2023-04-15T07:40:14.734Z,100093.66
2023-04-15T07:42:44.898Z,100092.88
2023-04-15T07:45:14.105Z,100093.19
2023-04-15T07:47:43.524Z,100097.09
2023-04-15T07:50:14.679Z,100096.75
2023-04-15T07:52:44.073Z,100092.16
2023-04-15T07:55:13.277Z,100098.03
2023-04-15T07:57:42.451Z,100095.88
2023-04-15T08:00:12.735Z,100102.28
2023-04-15T08:02:46.899Z,100102.09
2023-04-15T08:05:17.851Z,100099.22
2023-04-15T08:07:47.221Z,100104.94
2023-04-15T08:10:16.660Z,100106.91
2023-04-15T08:12:49.011Z,100105.91
2023-04-15T08:15:18.300Z,100114.44
2023-04-15T08:17:47.727Z,100114.66
2023-04-15T08:20:18.847Z,100114.28
2023-04-15T08:22:52.531Z,100117.88
2023-04-15T08:25:21.710Z,100122.56
2023-04-15T08:27:50.873Z,100117.06
2023-04-15T08:30:23.929Z,100114.06
2023-04-15T08:32:56.231Z,100114.78
2023-04-15T08:35:27.309Z,100125.59
2023-04-15T08:37:56.606Z,100119.25
2023-04-15T08:40:36.899Z,100123.81
2023-04-15T08:43:09.158Z,100128.22
2023-04-15T08:45:42.513Z,100134.22
2023-04-15T08:48:17.578Z,100136.38
2023-04-15T08:50:49.216Z,100138.91
2023-04-15T08:53:19.246Z,100137.34
2023-04-15T08:55:53.178Z,100144.00
2023-04-15T08:58:22.450Z,100140.34
2023-04-15T09:00:51.734Z,100133.84
2023-04-15T09:03:21.935Z,100133.75
2023-04-15T09:05:53.368Z,100131.66
2023-04-15T09:08:22.839Z,100132.94
2023-04-15T09:10:53.276Z,100139.13
2023-04-15T09:13:22.882Z,100145.00
2023-04-15T09:15:52.358Z,100140.69
2023-04-15T09:18:30.060Z,100146.81
2023-04-15T09:21:11.437Z,100145.41
2023-04-15T09:24:00.665Z,100146.34
2023-04-15T09:26:34.574Z,100143.72
2023-04-15T09:29:07.412Z,100155.41
2023-04-15T09:31:40.693Z,100156.34
2023-04-15T09:34:09.957Z,100155.19
2023-04-15T09:36:54.677Z,100164.53
2023-04-15T09:39:23.844Z,100158.41
2023-04-15T09:42:06.848Z,100167.88
2023-04-15T09:44:37.359Z,100165.84
2023-04-15T09:47:32.149Z,100169.06
2023-04-15T09:50:04.388Z,100176.38
2023-04-15T09:52:42.974Z,100174.25
2023-04-15T09:55:16.013Z,100175.94
2023-04-15T09:57:47.125Z,100178.41
2023-04-15T10:00:17.076Z,100185.72
2023-04-15T10:02:50.333Z,100185.00
2023-04-15T10:05:19.761Z,100192.06
2023-04-15T10:07:51.005Z,100192.59
2023-04-15T10:10:20.964Z,100196.16
2023-04-15T10:12:52.748Z,100193.41
2023-04-15T10:15:22.797Z,100197.47
2023-04-15T10:17:54.557Z,100196.63
2023-04-15T10:20:24.424Z,100206.19
2023-04-15T10:22:56.012Z,100203.19
2023-04-15T10:25:28.478Z,100209.59
2023-04-15T10:27:58.749Z,100200.75
2023-04-15T10:30:28.263Z,100198.44
2023-04-15T10:32:58.117Z,100197.81
2023-04-15T10:35:27.949Z,100192.22
2023-04-15T10:37:59.048Z,100198.19
2023-04-15T10:40:31.510Z,100203.31
2023-04-15T10:43:02.066Z,100205.44
2023-04-15T10:45:34.788Z,100206.00
2023-04-15T10:48:05.986Z,100209.72
2023-04-15T10:50:35.347Z,100213.25
2023-04-15T10:53:06.045Z,100208.09
2023-04-15T10:55:36.255Z,100202.09
2023-04-15T10:58:05.914Z,100210.69
2023-04-15T11:00:39.549Z,100218.34
2023-04-15T11:03:10.258Z,100216.81
2023-04-15T11:06:01.711Z,100223.53
2023-04-15T11:09:09.566Z,100221.88
2023-04-15T11:12:07.570Z,100227.31
2023-04-15T11:14:41.397Z,100228.28
2023-04-15T11:17:10.650Z,100240.00
2023-04-15T11:19:40.853Z,100237.00
2023-04-15T11:22:10.564Z,100228.78
2023-04-15T11:24:50.553Z,100236.56
2023-04-15T11:27:23.722Z,100238.69
2023-04-15T11:29:53.015Z,100239.63
2023-04-15T11:32:22.880Z,100246.81
2023-04-15T11:34:53.214Z,100252.63
2023-04-15T11:37:29.716Z,100260.50
2023-04-15T11:40:00.330Z,100255.09
2023-04-15T11:42:39.296Z,100259.34
2023-04-15T11:45:21.178Z,100263.25
2023-04-15T11:47:53.358Z,100264.34
2023-04-15T11:50:24.568Z,100259.59
2023-04-15T11:52:56.587Z,100273.47
2023-04-15T11:55:26.429Z,100270.50
2023-04-15T11:58:08.151Z,100273.66
2023-04-15T12:00:36.774Z,100272.88
2023-04-15T12:03:25.142Z,100268.91
2023-04-15T12:06:14.083Z,100280.41
2023-04-15T12:09:02.577Z,100284.44
2023-04-15T12:11:37.447Z,100288.66
2023-04-15T12:14:08.184Z,100288.69
2023-04-15T12:16:45.713Z,100280.03
2023-04-15T12:19:22.119Z,100285.53
2023-04-15T12:21:50.677Z,100295.75
2023-04-15T12:24:22.439Z,100291.84
2023-04-15T12:26:53.940Z,100300.31
2023-04-15T12:29:26.059Z,100288.94
2023-04-15T12:31:55.568Z,100299.03
2023-04-15T12:34:31.477Z,100300.81
2023-04-15T12:37:00.684Z,100296.34
2023-04-15T12:39:31.196Z,100305.25
2023-04-15T12:42:01.568Z,100305.41
2023-04-15T12:44:29.906Z,100302.31
2023-04-15T12:46:58.218Z,100304.13
2023-04-15T12:49:26.826Z,100312.34
2023-04-15T12:51:57.792Z,100317.78
2023-04-15T12:54:26.655Z,100317.72
2023-04-15T12:56:55.561Z,100323.16
2023-04-15T12:59:25.140Z,100326.28
2023-04-15T13:01:54.305Z,100323.31
2023-04-15T13:04:23.270Z,100334.66
2023-04-15T13:11:20.566Z,100337.56
2023-04-15T13:13:52.720Z,100330.69
2023-04-15T13:16:22.110Z,100340.69
2023-04-15T13:18:50.566Z,100343.34
2023-04-15T13:21:19.451Z,100334.63
2023-04-15T13:23:47.460Z,100335.63
2023-04-15T13:26:15.443Z,100338.59
2023-04-15T13:28:43.373Z,100334.47
2023-04-15T13:31:11.289Z,100338.78
2023-04-15T13:33:41.018Z,100343.91
2023-04-15T13:36:09.524Z,100348.28
2023-04-15T13:38:37.550Z,100346.34
2023-04-15T13:41:05.509Z,100345.72
2023-04-15T13:43:34.235Z,100351.72
2023-04-15T13:46:02.343Z,100362.44
2023-04-15T13:48:30.527Z,100361.97
2023-04-15T13:50:59.851Z,100363.91
2023-04-15T13:53:36.066Z,100365.13
2023-04-15T13:56:07.171Z,100362.44
2023-04-15T13:58:35.152Z,100364.78
2023-04-15T14:01:05.493Z,100370.19
2023-04-15T14:03:34.726Z,100373.09
2023-04-15T14:06:04.227Z,100376.31
2023-04-15T14:08:32.250Z,100375.94
2023-04-15T14:11:00.468Z,100383.41
2023-04-15T14:13:28.421Z,100384.47
2023-04-15T14:15:57.893Z,100378.97
2023-04-15T14:18:28.988Z,100381.97
2023-04-15T14:20:59.264Z,100387.09
2023-04-15T14:23:33.657Z,100391.91
2023-04-15T14:26:01.693Z,100397.84
2023-04-15T14:28:30.268Z,100401.47
2023-04-15T14:30:58.298Z,100406.25
2023-04-15T14:33:26.412Z,100406.09
2023-04-15T14:35:54.404Z,100410.63
2023-04-15T14:38:22.672Z,100410.25
2023-04-15T14:40:52.074Z,100410.78
2023-04-15T14:43:20.175Z,100417.06
2023-04-15T14:45:48.907Z,100421.00
2023-04-15T14:48:17.181Z,100424.94
2023-04-15T14:50:45.256Z,100432.59
2023-04-15T14:53:13.244Z,100433.56
2023-04-15T14:55:41.316Z,100435.72
2023-04-15T14:58:10.753Z,100437.75
2023-04-15T15:00:41.960Z,100440.53
2023-04-15T15:03:13.523Z,100449.22
2023-04-15T15:05:42.226Z,100444.09
2023-04-15T15:08:10.668Z,100444.53
2023-04-15T15:10:48.045Z,100442.25
2023-04-15T15:13:19.693Z,100452.34
2023-04-15T15:15:49.956Z,100456.28
2023-04-15T15:18:18.846Z,100453.78
2023-04-15T15:20:47.647Z,100451.53
2023-04-15T15:23:15.916Z,100461.66
2023-04-15T15:25:45.545Z,100455.34
2023-04-15T15:28:14.944Z,100466.06
2023-04-15T15:30:46.749Z,100462.25
2023-04-15T15:33:15.266Z,100464.19
2023-04-15T15:35:43.246Z,100466.09
2023-04-15T15:38:12.692Z,100471.31
2023-04-15T15:40:40.871Z,100477.44
2023-04-15T15:43:08.978Z,100474.50
2023-04-15T15:45:37.023Z,100477.56
2023-04-15T15:48:07.393Z,100479.84
2023-04-15T15:50:36.738Z,100476.00
2023-04-15T15:53:04.776Z,100477.91
2023-04-15T15:55:33.111Z,100485.44
2023-04-15T15:58:01.206Z,100488.06
2023-04-15T16:00:29.238Z,100490.81
2023-04-15T16:05:32.672Z,100493.09
2023-04-15T16:08:00.639Z,100499.00
2023-04-15T16:10:29.438Z,100507.16
2023-04-15T16:12:57.488Z,100496.91
2023-04-15T16:15:26.629Z,100495.78
2023-04-15T16:17:54.714Z,100495.63
2023-04-15T16:20:22.855Z,100504.72
2023-04-15T16:22:58.544Z,100507.25
2023-04-15T16:25:27.217Z,100507.34
2023-04-15T16:28:05.460Z,100514.06
2023-04-15T16:30:37.467Z,100510.84
2023-04-15T16:33:05.921Z,100509.38
2023-04-15T16:35:34.785Z,100523.13
2023-04-15T16:38:42.713Z,100516.78
2023-04-15T16:41:13.294Z,100526.63
2023-04-15T16:43:43.394Z,100527.13
2023-04-15T16:47:02.978Z,100525.06
2023-04-15T16:49:34.876Z,100525.19
2023-04-15T16:52:03.194Z,100536.19
2023-04-15T16:54:34.772Z,100530.56
2023-04-15T16:57:03.358Z,100536.44
2023-04-15T16:59:34.408Z,100536.56
2023-04-15T17:02:02.456Z,100541.09
2023-04-15T17:04:31.360Z,100546.94
2023-04-15T17:06:59.729Z,100547.09
2023-04-15T17:09:27.701Z,100551.84
2023-04-15T17:11:59.744Z,100544.94
2023-04-15T17:14:28.733Z,100551.03
2023-04-15T17:16:56.804Z,100555.22
2023-04-15T17:19:24.948Z,100557.13
2023-04-15T17:22:04.236Z,100560.47
2023-04-15T17:24:33.125Z,100565.47
2023-04-15T17:27:06.053Z,100570.41
2023-04-15T17:29:36.481Z,100577.69
2023-04-15T17:32:07.287Z,100574.09
2023-04-15T17:34:55.202Z,100579.97
2023-04-15T17:37:44.780Z,100592.41
2023-04-15T17:40:34.258Z,100589.06
2023-04-15T17:43:25.214Z,100594.81
2023-04-15T17:46:15.491Z,100594.31
2023-04-15T17:49:05.166Z,100593.47
2023-04-15T17:51:54.854Z,100599.31
2023-04-15T17:54:42.732Z,100604.22
2023-04-15T17:57:32.287Z,100609.38
2023-04-15T18:00:24.236Z,100613.34
2023-04-15T18:03:12.371Z,100618.78
2023-04-15T18:06:01.474Z,100621.63
2023-04-15T18:08:49.419Z,100627.63
2023-04-15T18:11:38.924Z,100626.41
2023-04-15T18:14:34.188Z,100629.63
2023-04-15T18:17:24.293Z,100638.00
2023-04-15T18:20:13.435Z,100646.03
2023-04-15T18:22:46.446Z,100644.34
2023-04-15T18:25:14.617Z,100648.06
2023-04-15T18:27:42.942Z,100650.84
2023-04-15T18:30:17.294Z,100657.03
2023-04-15T18:35:59.479Z,100655.44
2023-04-15T18:38:31.782Z,100666.94
2023-04-15T18:41:00.051Z,100671.22
2023-04-15T18:43:32.317Z,100675.44
2023-04-15T18:46:38.483Z,100679.47
2023-04-15T18:49:30.906Z,100683.47
2023-04-15T18:52:35.074Z,100692.56
2023-04-15T18:55:06.672Z,100694.97
2023-04-15T18:59:28.753Z,100695.78
2023-04-15T19:02:07.356Z,100695.91
2023-04-15T19:05:10.562Z,100697.47
2023-04-15T19:07:41.099Z,100695.78
2023-04-15T19:10:09.416Z,100699.63
2023-04-15T19:12:37.697Z,100709.88
2023-04-15T19:15:06.232Z,100708.59
2023-04-15T19:17:34.463Z,100709.88
2023-04-15T19:20:02.436Z,100713.31
2023-04-15T19:22:35.085Z,100719.31
2023-04-15T19:25:04.760Z,100726.56
2023-04-15T19:27:32.941Z,100719.19
2023-04-15T19:30:01.960Z,100731.81
2023-04-15T19:32:30.163Z,100727.59
2023-04-15T19:34:58.235Z,100739.19
2023-04-15T19:37:26.397Z,100729.56
2023-04-15T19:39:55.686Z,100738.78
2023-04-15T19:42:25.113Z,100751.19
2023-04-15T19:44:52.987Z,100739.66
2023-04-15T19:47:21.047Z,100737.38
2023-04-15T19:49:50.935Z,100742.56
2023-04-15T19:52:24.985Z,100747.81
2023-04-15T19:55:00.365Z,100753.69
2023-04-15T19:57:29.843Z,100740.72
2023-04-15T19:59:57.952Z,100737.38
2023-04-15T20:02:26.143Z,100745.63
2023-04-15T20:04:54.155Z,100750.31
2023-04-15T20:07:22.205Z,100758.31
2023-04-15T20:09:51.903Z,100757.16
2023-04-15T20:12:49.754Z,100749.00
2023-04-15T20:15:10.979Z,100749.22
2023-04-15T20:17:39.082Z,100745.88
2023-04-15T20:20:08.513Z,100743.94
2023-04-15T20:22:36.428Z,100750.88
2023-04-15T20:25:06.163Z,100745.13
2023-04-15T20:27:34.301Z,100744.34
2023-04-15T20:30:03.821Z,100749.88
2023-04-15T20:32:35.403Z,100753.19
2023-04-15T20:35:04.632Z,100748.78
2023-04-15T20:37:33.826Z,100754.72
2023-04-15T20:40:02.574Z,100756.94
2023-04-15T20:42:33.703Z,100759.56
2023-04-15T20:45:02.352Z,100757.88
2023-04-15T20:47:30.962Z,100758.13
2023-04-15T20:50:00.520Z,100765.88
2023-04-15T20:52:28.464Z,100762.19
2023-04-15T20:54:56.473Z,100771.97
2023-04-15T20:57:24.597Z,100766.00
2023-04-15T20:59:53.079Z,100771.97
2023-04-15T21:02:21.344Z,100773.78
2023-04-15T21:04:49.373Z,100766.00
2023-04-15T21:07:18.728Z,100778.59
2023-04-15T21:09:50.933Z,100778.69
2023-04-15T21:12:18.989Z,100776.19
2023-04-15T21:14:47.181Z,100775.88
2023-04-15T21:17:15.308Z,100778.25
2023-04-15T21:19:43.524Z,100782.91
2023-04-15T21:22:11.572Z,100786.72
2023-04-15T21:24:40.852Z,100797.56
2023-04-15T21:27:08.853Z,100794.31
2023-04-15T21:29:36.819Z,100799.31
2023-04-15T21:32:04.922Z,100810.06
2023-04-15T21:34:32.888Z,100806.91
2023-04-15T21:37:00.845Z,100811.97
2023-04-15T21:39:28.910Z,100817.66
2023-04-15T21:42:01.153Z,100821.13
2023-04-15T21:44:29.416Z,100822.19
2023-04-15T21:46:57.575Z,100812.09
2023-04-15T21:49:25.706Z,100826.25
2023-04-15T21:51:53.612Z,100827.31
2023-04-15T21:54:21.519Z,100832.13
2023-04-15T21:56:50.828Z,100825.84
2023-04-15T21:59:20.504Z,100836.38
2023-04-15T22:01:48.693Z,100840.38
2023-04-15T22:04:16.834Z,100837.09
2023-04-15T22:06:44.964Z,100832.81
2023-04-15T22:09:14.410Z,100839.63
2023-04-15T22:11:42.438Z,100840.16
2023-04-15T22:14:10.545Z,100845.84
2023-04-15T22:16:39.904Z,100841.72
2023-04-15T22:19:08.183Z,100856.34
2023-04-15T22:21:36.428Z,100851.09
2023-04-15T22:24:37.285Z,100851.22
2023-04-15T22:26:52.649Z,100852.25
2023-04-15T22:29:20.826Z,100861.91
2023-04-15T22:31:50.332Z,100865.50
2023-04-15T22:34:21.272Z,100866.34
2023-04-15T22:36:49.353Z,100871.50
2023-04-15T22:39:17.803Z,100873.06
2023-04-15T22:41:46.177Z,100871.56
2023-04-15T22:44:14.203Z,100867.69
2023-04-15T22:46:42.330Z,100874.63
2023-04-15T22:49:11.827Z,100881.56
2023-04-15T22:51:39.715Z,100877.81
2023-04-15T22:54:07.706Z,100882.94
2023-04-15T22:56:35.710Z,100883.81
2023-04-15T22:59:03.678Z,100885.88
2023-04-15T23:01:32.433Z,100887.47
2023-04-15T23:04:04.978Z,100890.31
2023-04-15T23:06:49.686Z,100891.16
2023-04-15T23:09:17.685Z,100906.88
2023-04-15T23:11:45.605Z,100883.56
2023-04-15T23:14:13.545Z,100892.16
2023-04-15T23:16:41.564Z,100891.13
2023-04-15T23:19:09.670Z,100893.44
2023-04-15T23:21:37.877Z,100892.59
2023-04-15T23:24:07.713Z,100896.50
2023-04-15T23:26:35.795Z,100897.78
2023-04-15T23:29:03.819Z,100899.53
2023-04-15T23:31:31.769Z,100901.47
2023-04-15T23:33:59.821Z,100904.72
2023-04-15T23:36:28.014Z,100910.59
2023-04-15T23:38:56.020Z,100906.16
2023-04-15T23:41:25.312Z,100908.91
2023-04-15T23:43:53.325Z,100910.41
2023-04-15T23:46:21.201Z,100910.78
2023-04-15T23:48:49.707Z,100911.53
2023-04-15T23:51:17.676Z,100908.09
2023-04-15T23:53:45.727Z,100906.72
2023-04-15T23:56:13.604Z,100911.75
2023-04-15T23:58:42.871Z,100909.66
